Time;durP1;ratioP1;P1;durP2;ratioP2;P2;SDS_P1;SDS_P2;PMS_P1;PMS_P2;Temp;Humidity;BMP_temperature;BMP_pressure;BME280_temperature;BME280_humidity;BME280_pressure;Samples;Min_cycle;Max_cycle;Signal;HPM_P1;HPM_P2
2022/09/23 00:01:23;;;;;;;;;;;;;;;;;;5062294;28;47674;-79
2022/09/23 00:03:49;;;;;;;;;;;;;;;;;;5075493;28;47667;-79
2022/09/23 00:06:16;;;;;;;;;;;;;;;;;;5057253;28;44734;-79
2022/09/23 00:08:43;;;;;;;;;;;;;;;;;;5054215;28;47998;-79
2022/09/23 00:11:09;;;;;;;;;;;;;;;;;;5057414;28;44842;-78
2022/09/23 00:13:35;;;;;;;;;;;;;;;;;;5056267;28;46878;-78
2022/09/23 00:16:01;;;;;;;;;;;;;;;;;;5053928;28;47790;-78
2022/09/23 00:18:27;;;;;;;;;;;;;;;;;;5074089;28;43403;-78
2022/09/23 00:20:54;;;;;;;;;;;;;;;;;;5073069;28;47816;-78
2022/09/23 00:23:20;;;;;;;;;;;;;;;;;;5055248;28;47274;-79
2022/09/23 00:25:46;;;;;;;;;;;;;;;;;;5073834;28;42725;-78
2022/09/23 00:28:13;;;;;;;;;;;;;;;;;;5051570;28;47288;-79
2022/09/23 00:30:39;;;;;;;;;;;;;;;;;;5054612;28;44901;-79
2022/09/23 00:33:05;;;;;;;;;;;;;;;;;;5054390;28;47630;-79
2022/09/23 00:35:31;;;;;;;;;;;;;;;;;;5058700;28;46165;-78
2022/09/23 00:37:57;;;;;;;;;;;;;;;;;;5074924;28;44765;-78
2022/09/23 00:40:24;;;;;;;;;;;;;;;;;;5055824;28;46701;-78
2022/09/23 00:42:51;;;;;;;;;;;;;;;;;;5063755;28;47868;-79
2022/09/23 00:45:17;;;;;;;;;;;;;;;;;;5055743;28;43578;-78
2022/09/23 00:47:43;;;;;;;;;;;;;;;;;;5056605;28;44635;-79
2022/09/23 00:50:10;;;;;;;;;;;;;;;;;;5046947;28;45505;-79
2022/09/23 00:52:36;;;;;;;;;;;;;;;;;;5036709;28;46509;-79
2022/09/23 00:55:02;;;;;;;;;;;;;;;;;;5066647;28;48354;-79
2022/09/23 00:57:29;;;;;;;;;;;;;;;;;;5056435;28;43677;-79
2022/09/23 00:59:56;;;;;;;;;;;;;;;;;;5055948;28;46698;-77
2022/09/23 01:02:22;;;;;;;;;;;;;;;;;;5072735;28;45389;-79
2022/09/23 01:04:49;;;;;;;;;;;;;;;;;;5053914;28;43842;-79
2022/09/23 01:07:15;;;;;;;;;;;;;;;;;;5071148;28;46597;-79
2022/09/23 01:09:42;;;;;;;;;;;;;;;;;;5057512;28;47289;-77
2022/09/23 01:12:08;;;;;;;;;;;;;;;;;;5074968;28;47961;-77
2022/09/23 01:14:35;;;;;;;;;;;;;;;;;;5073659;28;48439;-78
2022/09/23 01:17:01;;;;;;;;;;;;;;;;;;5059435;28;44080;-79
2022/09/23 01:19:27;;;;;;;;;;;;;;;;;;5072265;28;45721;-79
2022/09/23 01:21:53;;;;;;;;;;;;;;;;;;5054618;28;47128;-79
2022/09/23 01:24:19;;;;;;;;;;;;;;;;;;5056540;28;43494;-79
2022/09/23 01:26:46;;;;;;;;;;;;;;;;;;5052734;28;46654;-78
2022/09/23 01:29:13;;;;;;;;;;;;;;;;;;5071257;28;47299;-79
2022/09/23 01:31:39;;;;;;;;;;;;;;;;;;5072265;28;46739;-78
2022/09/23 01:34:05;;;;;;;;;;;;;;;;;;5072183;28;48399;-79
2022/09/23 01:36:31;;;;;;;;;;;;;;;;;;5074593;28;42160;-79
2022/09/23 01:38:58;;;;;;;;;;;;;;;;;;5055391;28;43988;-78
2022/09/23 01:41:24;;;;;;;;;;;;;;;;;;5072968;28;44876;-79
2022/09/23 01:43:51;;;;;;;;;;;;;;;;;;5051425;28;45109;-79
2022/09/23 01:46:17;;;;;;;;;;;;;;;;;;5071595;28;45240;-78
2022/09/23 01:48:43;;;;;;;;;;;;;;;;;;5054067;28;45461;-79
2022/09/23 01:51:09;;;;;;;;;;;;;;;;;;5071677;28;43365;-78
2022/09/23 01:53:36;;;;;;;;;;;;;;;;;;5052600;28;47197;-78
2022/09/23 01:56:02;;;;;;;;;;;;;;;;;;5056016;28;45484;-78
2022/09/23 01:58:29;;;;;;;;;;;;;;;;;;5066672;28;48124;-77
2022/09/23 02:00:55;;;;;;;;;;;;;;;;;;5055484;28;47214;-78
2022/09/23 02:03:25;;;;;;;;;;;;;;;;;;5054261;28;43746;-78
2022/09/23 02:05:52;;;;;;;;;;;;;;;;;;5055392;28;46395;-78
2022/09/23 02:08:18;;;;;;;;;;;;;;;;;;5055309;28;47280;-79
2022/09/23 02:10:44;;;;;;;;;;;;;;;;;;5072003;28;45515;-79
2022/09/23 02:13:12;;;;;;;;;;;;;;;;;;5072217;28;46760;-79
2022/09/23 02:15:39;;;;;;;;;;;;;;;;;;5072155;28;45460;-79
2022/09/23 02:18:05;;;;;;;;;;;;;;;;;;5035365;28;47975;-79
2022/09/23 02:20:31;;;;;;;;;;;;;;;;;;5033849;28;47542;-78
2022/09/23 02:22:57;;;;;;;;;;;;;;;;;;5053738;28;42133;-77
2022/09/23 02:25:24;;;;;;;;;;;;;;;;;;5056651;28;46087;-78
2022/09/23 02:27:50;;;;;;;;;;;;;;;;;;5075558;28;47543;-78
2022/09/23 02:30:17;;;;;;;;;;;;;;;;;;5043467;28;44894;-78
2022/09/23 02:32:43;;;;;;;;;;;;;;;;;;5054752;28;48047;-79
2022/09/23 02:35:09;;;;;;;;;;;;;;;;;;5067124;28;47297;-79
2022/09/23 02:37:36;;;;;;;;;;;;;;;;;;5068948;28;46622;-79
2022/09/23 02:40:02;;;;;;;;;;;;;;;;;;5075943;28;44363;-78
2022/09/23 02:42:28;;;;;;;;;;;;;;;;;;5069958;28;43947;-78
2022/09/23 02:44:54;;;;;;;;;;;;;;;;;;5054968;28;46739;-79
2022/09/23 02:47:22;;;;;;;;;;;;;;;;;;5055461;28;48353;-77
2022/09/23 02:49:48;;;;;;;;;;;;;;;;;;5053730;28;42895;-79
2022/09/23 02:52:16;;;;;;;;;;;;;;;;;;5036467;28;45106;-80
2022/09/23 02:54:43;;;;;;;;;;;;;;;;;;5058643;28;47836;-78
2022/09/23 02:57:09;;;;;;;;;;;;;;;;;;5049493;28;43667;-79
2022/09/23 02:59:35;;;;;;;;;;;;;;;;;;5053428;28;47609;-79
2022/09/23 03:02:03;;;;;;;;;;;;;;;;;;5054454;28;42817;-78
2022/09/23 03:04:30;;;;;;;;;;;;;;;;;;5056907;28;47350;-79
2022/09/23 03:06:56;;;;;;;;;;;;;;;;;;5074288;28;48350;-79
2022/09/23 03:09:22;;;;;;;;;;;;;;;;;;5058196;28;43959;-78
2022/09/23 03:11:49;;;;;;;;;;;;;;;;;;5056843;28;47887;-78
2022/09/23 03:14:18;;;;;;;;;;;;;;;;;;5059393;28;45851;-78
2022/09/23 03:16:46;;;;;;;;;;;;;;;;;;5073100;28;44915;-78
2022/09/23 03:19:13;;;;;;;;;;;;;;;;;;5056985;28;44762;-78
2022/09/23 03:21:39;;;;;;;;;;;;;;;;;;5071949;28;43626;-79
2022/09/23 03:24:06;;;;;;;;;;;;;;;;;;5053454;28;46620;-79
2022/09/23 03:26:32;;;;;;;;;;;;;;;;;;5064965;28;47628;-78
2022/09/23 03:28:58;;;;;;;;;;;;;;;;;;5059520;28;41386;-79
2022/09/23 03:31:24;;;;;;;;;;;;;;;;;;5055581;28;47791;-79
2022/09/23 03:33:51;;;;;;;;;;;;;;;;;;5070404;28;46783;-79
2022/09/23 03:39:02;;;;;;;;;;;;;;;;;;5066839;28;45291;-78
2022/09/23 03:41:29;;;;;;;;;;;;;;;;;;5065147;28;44379;-78
2022/09/23 03:43:56;;;;;;;;;;;;;;;;;;5039318;28;45081;-78
2022/09/23 03:46:23;;;;;;;;;;;;;;;;;;5053830;28;46884;-77
2022/09/23 03:48:49;;;;;;;;;;;;;;;;;;5072863;28;45393;-79
2022/09/23 03:51:15;;;;;;;;;;;;;;;;;;5071232;28;46896;-79
2022/09/23 03:53:42;;;;;;;;;;;;;;;;;;5071474;28;47486;-78
2022/09/23 03:56:10;;;;;;;;;;;;;;;;;;5059807;28;43801;-78
2022/09/23 03:58:36;;;;;;;;;;;;;;;;;;5052093;28;47091;-77
2022/09/23 04:01:03;;;;;;;;;;;;;;;;;;5068071;28;47293;-78
2022/09/23 04:03:29;;;;;;;;;;;;;;;;;;5074624;28;49308;-78
2022/09/23 04:05:55;;;;;;;;;;;;;;;;;;5053172;28;47060;-79
2022/09/23 04:08:21;;;;;;;;;;;;;;;;;;5055953;28;44989;-79
2022/09/23 04:10:49;;;;;;;;;;;;;;;;;;5057023;28;47776;-78
2022/09/23 04:13:19;;;;;;;;;;;;;;;;;;5069915;28;46999;-78
2022/09/23 04:15:46;;;;;;;;;;;;;;;;;;5069365;28;41119;-77
2022/09/23 04:18:12;;;;;;;;;;;;;;;;;;5043237;28;45150;-77
2022/09/23 04:20:38;;;;;;;;;;;;;;;;;;5062332;28;47093;-79
2022/09/23 04:23:05;;;;;;;;;;;;;;;;;;5072836;28;41570;-78
2022/09/23 04:25:31;;;;;;;;;;;;;;;;;;5057543;28;46680;-79
2022/09/23 04:27:57;;;;;;;;;;;;;;;;;;5074800;28;42131;-78
2022/09/23 04:30:23;;;;;;;;;;;;;;;;;;5072597;28;47752;-79
2022/09/23 04:32:50;;;;;;;;;;;;;;;;;;5053566;28;45824;-79
2022/09/23 04:35:16;;;;;;;;;;;;;;;;;;5054655;28;44045;-79
2022/09/23 04:37:42;;;;;;;;;;;;;;;;;;5055843;28;46164;-79
2022/09/23 04:40:08;;;;;;;;;;;;;;;;;;5050336;28;46895;-78
2022/09/23 04:42:35;;;;;;;;;;;;;;;;;;5042699;28;43540;-77
2022/09/23 04:45:01;;;;;;;;;;;;;;;;;;5055490;28;46502;-78
2022/09/23 04:47:27;;;;;;;;;;;;;;;;;;5053340;28;43181;-79
2022/09/23 04:49:53;;;;;;;;;;;;;;;;;;5052478;28;44968;-79
2022/09/23 04:52:24;;;;;;;;;;;;;;;;;;5054123;28;47054;-78
2022/09/23 04:54:50;;;;;;;;;;;;;;;;;;5067676;28;43369;-79
2022/09/23 04:57:17;;;;;;;;;;;;;;;;;;5055378;28;46366;-79
2022/09/23 04:59:44;;;;;;;;;;;;;;;;;;5073249;28;47836;-79
2022/09/23 05:02:11;;;;;;;;;;;;;;;;;;5072994;28;46167;-80
2022/09/23 05:04:38;;;;;;;;;;;;;;;;;;5067573;28;46482;-79
2022/09/23 05:07:04;;;;;;;;;;;;;;;;;;5060626;28;47976;-80
2022/09/23 05:09:30;;;;;;;;;;;;;;;;;;5054159;28;45101;-80
2022/09/23 05:11:56;;;;;;;;;;;;;;;;;;5064285;28;45597;-79
2022/09/23 05:14:22;;;;;;;;;;;;;;;;;;5053052;28;43890;-79
2022/09/23 05:16:49;;;;;;;;;;;;;;;;;;5052604;28;47312;-80
2022/09/23 05:19:15;;;;;;;;;;;;;;;;;;5052956;28;47170;-79
2022/09/23 05:21:42;;;;;;;;;;;;;;;;;;5070487;28;45685;-79
2022/09/23 05:24:08;;;;;;;;;;;;;;;;;;5054214;28;44892;-80
2022/09/23 05:26:34;;;;;;;;;;;;;;;;;;5053802;28;46997;-80
2022/09/23 05:29:01;;;;;;;;;;;;;;;;;;5055649;28;45108;-80
2022/09/23 05:31:27;;;;;;;;;;;;;;;;;;5072699;28;47249;-80
2022/09/23 05:33:53;;;;;;;;;;;;;;;;;;5049265;28;43755;-79
2022/09/23 05:36:20;;;;;;;;;;;;;;;;;;5070191;28;45278;-80
2022/09/23 05:38:47;;;;;;;;;;;;;;;;;;5055004;28;47281;-81
2022/09/23 05:41:13;;;;;;;;;;;;;;;;;;5064966;28;44036;-81
2022/09/23 05:43:40;;;;;;;;;;;;;;;;;;5072647;28;44634;-81
2022/09/23 05:46:06;;;;;;;;;;;;;;;;;;5056217;28;47307;-80
2022/09/23 05:48:33;;;;;;;;;;;;;;;;;;5049571;28;44080;-81
2022/09/23 05:50:59;;;;;;;;;;;;;;;;;;5066536;28;45622;-81
2022/09/23 05:53:26;;;;;;;;;;;;;;;;;;5071491;28;44029;-80
2022/09/23 05:55:53;;;;;;;;;;;;;;;;;;5071941;28;46317;-80
2022/09/23 05:58:19;;;;;;;;;;;;;;;;;;5055829;28;48375;-80
2022/09/23 06:00:48;;;;;;;;;;;;;;;;;;5074368;28;43863;-80
2022/09/23 06:03:15;;;;;;;;;;;;;;;;;;5055641;28;45078;-79
2022/09/23 06:05:41;;;;;;;;;;;;;;;;;;5058280;28;44498;-81
2022/09/23 06:08:07;;;;;;;;;;;;;;;;;;5057397;28;45535;-79
2022/09/23 06:10:34;;;;;;;;;;;;;;;;;;5057629;28;46670;-81
2022/09/23 06:13:00;;;;;;;;;;;;;;;;;;5075128;28;43593;-80
2022/09/23 06:15:26;;;;;;;;;;;;;;;;;;5054171;28;45230;-80
2022/09/23 06:17:52;;;;;;;;;;;;;;;;;;5056525;28;47522;-81
2022/09/23 06:20:18;;;;;;;;;;;;;;;;;;5055559;28;43654;-81
2022/09/23 06:22:45;;;;;;;;;;;;;;;;;;5054556;28;46179;-79
2022/09/23 06:25:11;;;;;;;;;;;;;;;;;;5055862;28;45277;-80
2022/09/23 06:27:38;;;;;;;;;;;;;;;;;;5056436;28;45049;-80
2022/09/23 06:30:04;;;;;;;;;;;;;;;;;;5054652;28;44577;-81
2022/09/23 06:32:30;;;;;;;;;;;;;;;;;;5052958;28;46676;-80
2022/09/23 06:34:56;;;;;;;;;;;;;;;;;;5054180;28;45091;-80
2022/09/23 06:37:23;;;;;;;;;;;;;;;;;;5052523;28;45772;-79
2022/09/23 06:39:49;;;;;;;;;;;;;;;;;;5072620;28;45151;-81
2022/09/23 06:42:15;;;;;;;;;;;;;;;;;;5069136;28;46318;-77
2022/09/23 06:44:41;;;;;;;;;;;;;;;;;;5050589;28;45558;-78
2022/09/23 06:47:08;;;;;;;;;;;;;;;;;;5067198;28;45122;-77
2022/09/23 06:49:35;;;;;;;;;;;;;;;;;;5049798;28;45596;-78
2022/09/23 06:52:01;;;;;;;;;;;;;;;;;;5067536;28;47317;-77
2022/09/23 06:54:29;;;;;;;;;;;;;;;;;;5071759;28;43564;-77
2022/09/23 06:56:55;;;;;;;;;;;;;;;;;;5050239;28;46891;-77
2022/09/23 06:59:23;;;;;;;;;;;;;;;;;;5069691;28;44918;-78
2022/09/23 07:01:49;;;;;;;;;;;;;;;;;;5051906;28;46650;-77
2022/09/23 07:04:16;;;;;;;;;;;;;;;;;;5063460;28;49581;-77
2022/09/23 07:06:42;;;;;;;;;;;;;;;;;;5076316;28;45116;-78
2022/09/23 07:09:09;;;;;;;;;;;;;;;;;;5054395;28;46729;-78
2022/09/23 07:11:36;;;;;;;;;;;;;;;;;;5058078;28;48424;-78
2022/09/23 07:14:02;;;;;;;;;;;;;;;;;;5061445;28;44721;-76
2022/09/23 07:16:28;;;;;;;;;;;;;;;;;;5056043;28;47034;-78
2022/09/23 07:18:55;;;;;;;;;;;;;;;;;;5073627;28;43330;-78
2022/09/23 07:21:21;;;;;;;;;;;;;;;;;;5036004;28;47854;-78
2022/09/23 07:23:48;;;;;;;;;;;;;;;;;;5052400;28;45746;-78
2022/09/23 07:26:15;;;;;;;;;;;;;;;;;;5057175;28;43925;-78
2022/09/23 07:28:41;;;;;;;;;;;;;;;;;;5057193;28;46752;-79
2022/09/23 07:31:08;;;;;;;;;;;;;;;;;;5056039;28;44859;-77
2022/09/23 07:33:34;;;;;;;;;;;;;;;;;;5073002;28;44958;-79
2022/09/23 07:36:00;;;;;;;;;;;;;;;;;;5074917;28;43979;-78
2022/09/23 07:38:29;;;;;;;;;;;;;;;;;;5052634;28;32075;-79
2022/09/23 07:40:56;;;;;;;;;;;;;;;;;;5058831;28;47788;-77
2022/09/23 07:43:22;;;;;;;;;;;;;;;;;;5052612;28;44822;-78
2022/09/23 07:45:48;;;;;;;;;;;;;;;;;;5050405;28;43941;-78
2022/09/23 07:48:14;;;;;;;;;;;;;;;;;;5064349;28;46719;-79
2022/09/23 07:50:40;;;;;;;;;;;;;;;;;;5055515;28;47129;-78
2022/09/23 07:53:07;;;;;;;;;;;;;;;;;;5054037;28;43490;-79
2022/09/23 07:55:33;;;;;;;;;;;;;;;;;;5055422;28;45163;-79
2022/09/23 07:58:00;;;;;;;;;;;;;;;;;;5056059;28;48431;-79
2022/09/23 08:00:26;;;;;;;;;;;;;;;;;;5059045;28;46746;-79
2022/09/23 08:02:52;;;;;;;;;;;;;;;;;;5055967;28;46463;-78
2022/09/23 08:05:19;;;;;;;;;;;;;;;;;;5050276;28;43690;-79
2022/09/23 08:07:45;;;;;;;;;;;;;;;;;;5073480;28;44553;-76
2022/09/23 08:10:11;;;;;;;;;;;;;;;;;;5055438;28;46238;-77
2022/09/23 08:12:38;;;;;;;;;;;;;;;;;;5070303;28;46062;-77
2022/09/23 08:15:05;;;;;;;;;;;;;;;;;;5072959;28;44964;-79
2022/09/23 08:17:31;;;;;;;;;;;;;;;;;;5060431;28;46981;-78
2022/09/23 08:19:57;;;;;;;;;;;;;;;;;;5049645;28;44598;-79
2022/09/23 08:22:23;;;;;;;;;;;;;;;;;;5040404;28;46010;-78
2022/09/23 08:24:50;;;;;;;;;;;;;;;;;;5069465;28;42620;-80
2022/09/23 08:27:17;;;;;;;;;;;;;;;;;;5049296;28;47497;-80
2022/09/23 08:29:43;;;;;;;;;;;;;;;;;;5069592;28;47231;-79
2022/09/23 08:32:09;;;;;;;;;;;;;;;;;;5047489;28;44615;-79
2022/09/23 08:34:39;;;;;;;;;;;;;;;;;;5067156;28;46264;-78
2022/09/23 08:37:05;;;;;;;;;;;;;;;;;;5078278;28;45628;-78
2022/09/23 08:39:31;;;;;;;;;;;;;;;;;;5068230;28;42766;-79
2022/09/23 08:41:57;;;;;;;;;;;;;;;;;;5052830;28;45890;-79
2022/09/23 08:44:25;;;;;;;;;;;;;;;;;;5049044;28;43551;-80
2022/09/23 08:46:51;;;;;;;;;;;;;;;;;;5067155;28;44462;-77
2022/09/23 08:49:18;;;;;;;;;;;;;;;;;;5043842;28;46178;-79
2022/09/23 08:51:45;;;;;;;;;;;;;;;;;;5042436;28;42910;-78
2022/09/23 08:54:11;;;;;;;;;;;;;;;;;;5053989;28;44681;-79
2022/09/23 08:56:37;;;;;;;;;;;;;;;;;;5054279;28;47278;-79
2022/09/23 08:59:04;;;;;;;;;;;;;;;;;;5055096;28;45523;-79
2022/09/23 09:01:30;;;;;;;;;;;;;;;;;;5051152;28;46760;-80
2022/09/23 09:03:56;;;;;;;;;;;;;;;;;;5067419;28;47346;-78
2022/09/23 09:06:22;;;;;;;;;;;;;;;;;;5071093;28;45424;-77
2022/09/23 09:08:51;;;;;;;;;;;;;;;;;;5071379;28;45920;-80
2022/09/23 09:11:18;;;;;;;;;;;;;;;;;;5066702;28;43711;-77
2022/09/23 09:13:47;;;;;;;;;;;;;;;;;;5065603;28;47865;-78
2022/09/23 09:16:13;;;;;;;;;;;;;;;;;;5067815;28;45649;-77
2022/09/23 09:18:41;;;;;;;;;;;;;;;;;;5069408;28;43750;-76
2022/09/23 09:21:08;;;;;;;;;;;;;;;;;;5046564;28;47418;-77
2022/09/23 09:23:34;;;;;;;;;;;;;;;;;;5062500;28;47186;-76
2022/09/23 09:26:01;;;;;;;;;;;;;;;;;;5065329;28;44995;-76
2022/09/23 09:28:29;;;;;;;;;;;;;;;;;;5047599;28;46371;-76
2022/09/23 09:30:56;;;;;;;;;;;;;;;;;;5044986;28;42832;-74
2022/09/23 09:33:22;;;;;;;;;;;;;;;;;;5065902;28;47749;-74
2022/09/23 09:35:49;;;;;;;;;;;;;;;;;;5067549;28;47584;-75
2022/09/23 09:38:15;;;;;;;;;;;;;;;;;;5049183;28;44832;-74
2022/09/23 09:40:41;;;;;;;;;;;;;;;;;;5050408;28;46754;-75
2022/09/23 09:43:08;;;;;;;;;;;;;;;;;;5070809;28;48533;-74
2022/09/23 09:45:35;;;;;;;;;;;;;;;;;;5049496;28;43181;-73
2022/09/23 09:48:02;;;;;;;;;;;;;;;;;;5050701;28;48788;-75
2022/09/23 09:50:31;;;;;;;;;;;;;;;;;;5068673;28;46169;-74
2022/09/23 09:52:57;;;;;;;;;;;;;;;;;;5067256;28;45180;-74
2022/09/23 09:55:24;;;;;;;;;;;;;;;;;;5059828;28;48513;-75
2022/09/23 09:57:51;;;;;;;;;;;;;;;;;;5050949;28;44707;-75
2022/09/23 10:00:17;;;;;;;;;;;;;;;;;;5061674;28;48319;-75
2022/09/23 10:02:44;;;;;;;;;;;;;;;;;;5052232;28;48290;-74
2022/09/23 10:05:10;;;;;;;;;;;;;;;;;;5050048;28;44092;-77
2022/09/23 10:07:36;;;;;;;;;;;;;;;;;;5040255;28;46187;-74
2022/09/23 10:10:02;;;;;;;;;;;;;;;;;;5058392;28;43964;-73
2022/09/23 10:12:48;;;;;;;;;;;;;;;;;;5050557;28;47787;-75
2022/09/23 10:15:14;;;;;;;;;;;;;;;;;;5064925;28;47364;-73
2022/09/23 10:17:40;;;;;;;;;;;;;;;;;;5064187;28;42747;-74
2022/09/23 10:20:07;;;;;;;;;;;;;;;;;;5058950;28;45248;-74
2022/09/23 10:22:33;;;;;;;;;;;;;;;;;;5060803;28;46243;-74
2022/09/23 10:25:00;;;;;;;;;;;;;;;;;;5064652;28;44397;-74
2022/09/23 10:27:26;;;;;;;;;;;;;;;;;;5055388;28;47826;-73
2022/09/23 10:29:52;;;;;;;;;;;;;;;;;;5044414;28;46274;-73
2022/09/23 10:32:19;;;;;;;;;;;;;;;;;;5068105;28;47557;-74
2022/09/23 10:34:45;;;;;;;;;;;;;;;;;;5067289;28;46806;-74
2022/09/23 10:37:11;;;;;;;;;;;;;;;;;;5065134;28;44041;-74
2022/09/23 10:47:52;;;;;;;;;;;;;;;;;;5052257;28;47820;-73
2022/09/23 10:50:19;;;;;;;;;;;;;;;;;;5064733;28;48309;-74
2022/09/23 10:52:45;;;;;;;;;;;;;;;;;;5049666;28;45136;-73
2022/09/23 10:55:12;;;;;;;;;;;;;;;;;;5070790;28;48511;-74
2022/09/23 10:57:41;;;;;;;;;;;;;;;;;;5068330;28;45348;-75
2022/09/23 11:00:08;;;;;;;;;;;;;;;;;;5077956;28;47841;-75
2022/09/23 11:02:35;;;;;;;;;;;;;;;;;;5058776;28;48281;-76
2022/09/23 11:05:01;;;;;;;;;;;;;;;;;;5065187;28;43323;-75
2022/09/23 11:07:27;;;;;;;;;;;;;;;;;;5065936;28;45688;-74
2022/09/23 11:09:53;;;;;;;;;;;;;;;;;;5065309;28;45825;-74
2022/09/23 11:12:20;;;;;;;;;;;;;;;;;;5065076;28;45168;-74
2022/09/23 11:14:50;;;;;;;;;;;;;;;;;;5068750;28;35857;-74
2022/09/23 11:17:16;;;;;;;;;;;;;;;;;;5063254;28;45047;-75
2022/09/23 11:19:42;;;;;;;;;;;;;;;;;;5040967;28;46831;-73
2022/09/23 11:22:14;;;;;;;;;;;;;;;;;;5063826;28;48370;-76
2022/09/23 11:24:42;;;;;;;;;;;;;;;;;;5063774;28;44079;-75
2022/09/23 11:27:08;;;;;;;;;;;;;;;;;;5048360;28;48241;-74
2022/09/23 11:29:35;;;;;;;;;;;;;;;;;;5068113;28;47190;-75
2022/09/23 11:32:01;;;;;;;;;;;;;;;;;;5067982;28;42030;-76
2022/09/23 11:34:27;;;;;;;;;;;;;;;;;;5046566;28;47763;-75
2022/09/23 11:36:53;;;;;;;;;;;;;;;;;;5062499;28;47217;-74
2022/09/23 11:39:20;;;;;;;;;;;;;;;;;;5062364;28;47744;-74
2022/09/23 11:41:46;;;;;;;;;;;;;;;;;;5067724;28;47305;-74
2022/09/23 11:44:12;;;;;;;;;;;;;;;;;;5046924;28;44219;-75
2022/09/23 11:46:38;;;;;;;;;;;;;;;;;;5049073;28;47775;-75
2022/09/23 11:49:05;;;;;;;;;;;;;;;;;;5066946;28;48419;-75
2022/09/23 11:51:33;;;;;;;;;;;;;;;;;;5065493;28;44054;-75
2022/09/23 11:54:00;;;;;;;;;;;;;;;;;;5059589;28;46368;-75
2022/09/23 11:56:27;;;;;;;;;;;;;;;;;;5056643;28;48415;-74
2022/09/23 11:59:00;;;;;;;;;;;;;;;;;;5065512;28;48200;-75
2022/09/23 12:01:30;;;;;;;;;;;;;;;;;;5065163;28;47367;-75
2022/09/23 12:04:02;;;;;;;;;;;;;;;;;;5066947;28;44957;-75
2022/09/23 12:06:41;;;;;;;;;;;;;;;;;;5062646;28;44846;-76
2022/09/23 12:09:07;;;;;;;;;;;;;;;;;;5045968;28;48348;-75
2022/09/23 12:11:34;;;;;;;;;;;;;;;;;;5061942;28;42874;-76
2022/09/23 12:14:00;;;;;;;;;;;;;;;;;;5046948;28;46949;-75
2022/09/23 12:16:26;;;;;;;;;;;;;;;;;;5059667;28;48006;-75
2022/09/23 12:18:52;;;;;;;;;;;;;;;;;;5051276;28;45680;-75
2022/09/23 12:21:19;;;;;;;;;;;;;;;;;;5059429;28;46860;-75
2022/09/23 12:24:05;;;;;;;;;;;;;;;;;;5049062;28;19975;-75
2022/09/23 12:26:31;;;;;;;;;;;;;;;;;;5065823;28;45981;-76
2022/09/23 12:28:58;;;;;;;;;;;;;;;;;;5058788;28;48522;-76
2022/09/23 12:31:29;;;;;;;;;;;;;;;;;;5059472;28;45112;-75
2022/09/23 12:33:56;;;;;;;;;;;;;;;;;;5063911;28;46798;-75
2022/09/23 12:36:22;;;;;;;;;;;;;;;;;;5042046;28;47297;-75
2022/09/23 12:38:48;;;;;;;;;;;;;;;;;;5061999;28;45096;-76
2022/09/23 12:41:17;;;;;;;;;;;;;;;;;;5061001;28;45556;-75
2022/09/23 12:43:45;;;;;;;;;;;;;;;;;;5048108;28;44980;-73
2022/09/23 12:46:13;;;;;;;;;;;;;;;;;;5042962;28;47913;-73
2022/09/23 12:48:41;;;;;;;;;;;;;;;;;;5061083;28;47967;-71
2022/09/23 12:51:07;;;;;;;;;;;;;;;;;;5044986;28;43569;-74
2022/09/23 12:53:33;;;;;;;;;;;;;;;;;;5066403;28;46536;-74
2022/09/23 12:55:59;;;;;;;;;;;;;;;;;;5063536;28;47621;-74
2022/09/23 12:58:25;;;;;;;;;;;;;;;;;;5056678;28;44930;-73
2022/09/23 13:00:52;;;;;;;;;;;;;;;;;;5061336;28;45138;-74
2022/09/23 13:08:48;;;;;;;;;;;;;;;;;;5052492;28;47235;-74
2022/09/23 13:11:14;;;;;;;;;;;;;;;;;;5041879;28;45144;-74
2022/09/23 13:13:40;;;;;;;;;;;;;;;;;;5061534;28;44862;-74
2022/09/23 13:16:06;;;;;;;;;;;;;;;;;;5065667;28;47175;-75
2022/09/23 13:18:33;;;;;;;;;;;;;;;;;;5065379;28;42914;-73
2022/09/23 13:20:59;;;;;;;;;;;;;;;;;;5041666;28;47826;-73
2022/09/23 13:23:25;;;;;;;;;;;;;;;;;;5064763;28;48374;-72
2022/09/23 13:25:52;;;;;;;;;;;;;;;;;;5065624;28;43942;-73
2022/09/23 13:28:18;;;;;;;;;;;;;;;;;;5063007;28;46851;-74
2022/09/23 13:30:44;;;;;;;;;;;;;;;;;;5062279;28;44081;-74
2022/09/23 13:33:10;;;;;;;;;;;;;;;;;;5059329;28;47863;-74
2022/09/23 13:35:36;;;;;;;;;;;;;;;;;;5064521;28;48464;-74
2022/09/23 13:38:03;;;;;;;;;;;;;;;;;;5051479;28;42928;-74
2022/09/23 13:40:29;;;;;;;;;;;;;;;;;;5064503;28;46636;-74
2022/09/23 13:42:56;;;;;;;;;;;;;;;;;;5046858;28;48352;-74
2022/09/23 13:45:23;;;;;;;;;;;;;;;;;;5065019;28;43651;-74
2022/09/23 13:47:49;;;;;;;;;;;;;;;;;;5045748;28;45235;-74
2022/09/23 13:50:15;;;;;;;;;;;;;;;;;;5047114;28;42647;-74
2022/09/23 13:52:41;;;;;;;;;;;;;;;;;;5059869;28;47022;-74
2022/09/23 13:55:08;;;;;;;;;;;;;;;;;;5045193;28;47164;-74
2022/09/23 13:57:35;;;;;;;;;;;;;;;;;;5052572;28;44931;-74
2022/09/23 14:00:01;;;;;;;;;;;;;;;;;;5046923;28;47847;-73
2022/09/23 14:02:27;;;;;;;;;;;;;;;;;;5045359;28;46890;-73
2022/09/23 14:04:53;;;;;;;;;;;;;;;;;;5066080;28;43949;-74
2022/09/23 14:07:20;;;;;;;;;;;;;;;;;;5042576;28;46470;-74
2022/09/23 14:09:46;;;;;;;;;;;;;;;;;;5039718;28;43982;-74
2022/09/23 14:12:13;;;;;;;;;;;;;;;;;;5059805;28;47895;-74
2022/09/23 14:14:39;;;;;;;;;;;;;;;;;;5063696;28;47291;-74
2022/09/23 14:17:05;;;;;;;;;;;;;;;;;;5039032;28;43955;-74
2022/09/23 14:19:31;;;;;;;;;;;;;;;;;;5048771;28;47749;-75
2022/09/23 14:21:58;;;;;;;;;;;;;;;;;;5067261;28;46164;-73
2022/09/23 14:24:25;;;;;;;;;;;;;;;;;;5067942;28;44245;-74
2022/09/23 14:26:51;;;;;;;;;;;;;;;;;;5061476;28;47731;-74
2022/09/23 14:29:17;;;;;;;;;;;;;;;;;;5051148;28;46269;-74
2022/09/23 14:31:55;;;;;;;;;;;;;;;;;;5066138;28;46623;-74
2022/09/23 14:34:21;;;;;;;;;;;;;;;;;;5067243;28;46254;-74
2022/09/23 14:39:32;;;;;;;;;;;;;;;;;;5068910;28;46770;-72
2022/09/23 14:41:59;;;;;;;;;;;;;;;;;;5066651;28;48370;-74
2022/09/23 14:44:26;;;;;;;;;;;;;;;;;;5054331;28;43950;-74
2022/09/23 14:46:55;;;;;;;;;;;;;;;;;;5044401;28;48028;-73
2022/09/23 14:49:21;;;;;;;;;;;;;;;;;;5065115;28;48363;-73
2022/09/23 14:51:47;;;;;;;;;;;;;;;;;;5065591;28;43985;-74
2022/09/23 14:54:13;;;;;;;;;;;;;;;;;;5063112;28;44448;-74
2022/09/23 14:56:40;;;;;;;;;;;;;;;;;;5058830;28;44949;-72
2022/09/23 14:59:06;;;;;;;;;;;;;;;;;;5064634;28;46777;-73
2022/09/23 15:01:32;;;;;;;;;;;;;;;;;;5064861;28;47088;-74
2022/09/23 15:03:58;;;;;;;;;;;;;;;;;;5063628;28;45205;-74
2022/09/23 15:06:25;;;;;;;;;;;;;;;;;;5068517;28;46779;-74
2022/09/23 15:08:51;;;;;;;;;;;;;;;;;;5068009;28;46221;-74
2022/09/23 15:11:17;;;;;;;;;;;;;;;;;;5066639;28;46045;-73
2022/09/23 15:13:43;;;;;;;;;;;;;;;;;;5067766;28;46603;-73
2022/09/23 15:16:10;;;;;;;;;;;;;;;;;;5068994;28;44061;-74
2022/09/23 15:18:36;;;;;;;;;;;;;;;;;;5056849;28;47013;-74
2022/09/23 15:21:02;;;;;;;;;;;;;;;;;;5065263;28;48338;-74
2022/09/23 15:23:28;;;;;;;;;;;;;;;;;;5060079;28;43937;-74
2022/09/23 15:25:55;;;;;;;;;;;;;;;;;;5063056;28;47782;-74
2022/09/23 15:28:22;;;;;;;;;;;;;;;;;;5062517;28;47279;-75
2022/09/23 15:30:49;;;;;;;;;;;;;;;;;;5065268;28;44952;-72
2022/09/23 15:33:15;;;;;;;;;;;;;;;;;;5061834;28;46714;-73
2022/09/23 15:35:41;;;;;;;;;;;;;;;;;;5055240;28;48308;-73
2022/09/23 15:38:08;;;;;;;;;;;;;;;;;;5062243;28;45269;-73
2022/09/23 15:40:34;;;;;;;;;;;;;;;;;;5063913;28;47345;-73
2022/09/23 15:43:00;;;;;;;;;;;;;;;;;;5061613;28;43818;-74
2022/09/23 15:45:26;;;;;;;;;;;;;;;;;;5062519;28;46649;-73
2022/09/23 15:47:54;;;;;;;;;;;;;;;;;;5060142;28;48475;-71
2022/09/23 15:50:20;;;;;;;;;;;;;;;;;;5062947;28;45115;-73
2022/09/23 15:52:46;;;;;;;;;;;;;;;;;;5060183;28;46677;-73
2022/09/23 15:55:13;;;;;;;;;;;;;;;;;;5063885;28;47323;-72
2022/09/23 15:57:39;;;;;;;;;;;;;;;;;;5066214;28;45163;-73
2022/09/23 16:00:05;;;;;;;;;;;;;;;;;;5063705;28;47369;-71
2022/09/23 16:02:32;;;;;;;;;;;;;;;;;;5048096;28;42818;-73
2022/09/23 16:05:01;;;;;;;;;;;;;;;;;;5066290;28;47877;-72
2022/09/23 16:07:27;;;;;;;;;;;;;;;;;;5067427;28;47276;-72
2022/09/23 16:09:54;;;;;;;;;;;;;;;;;;5060249;28;43770;-72
2022/09/23 16:12:20;;;;;;;;;;;;;;;;;;5060205;28;45666;-72
2022/09/23 16:14:46;;;;;;;;;;;;;;;;;;5036773;28;47281;-74
2022/09/23 16:17:15;;;;;;;;;;;;;;;;;;5063629;28;41778;-74
2022/09/23 16:19:42;;;;;;;;;;;;;;;;;;5065000;28;45976;-75
2022/09/23 16:22:08;;;;;;;;;;;;;;;;;;5067359;28;43560;-74
2022/09/23 16:24:34;;;;;;;;;;;;;;;;;;5062743;28;47674;-75
2022/09/23 16:27:01;;;;;;;;;;;;;;;;;;5044672;28;47165;-73
2022/09/23 16:29:28;;;;;;;;;;;;;;;;;;5062146;28;43827;-74
2022/09/23 16:31:54;;;;;;;;;;;;;;;;;;5046480;28;46735;-75
2022/09/23 16:34:20;;;;;;;;;;;;;;;;;;5066116;28;47222;-75
2022/09/23 16:36:47;;;;;;;;;;;;;;;;;;5045962;28;44038;-75
2022/09/23 16:39:13;;;;;;;;;;;;;;;;;;5066164;28;46709;-75
2022/09/23 16:41:40;;;;;;;;;;;;;;;;;;5063190;28;45503;-75
2022/09/23 16:44:09;;;;;;;;;;;;;;;;;;5050706;28;46890;-75
2022/09/23 16:46:35;;;;;;;;;;;;;;;;;;5048953;28;47304;-74
2022/09/23 16:49:01;;;;;;;;;;;;;;;;;;5067154;28;45386;-75
2022/09/23 16:51:28;;;;;;;;;;;;;;;;;;5064824;28;47921;-75
2022/09/23 16:53:54;;;;;;;;;;;;;;;;;;5047066;28;48334;-75
2022/09/23 16:56:20;;;;;;;;;;;;;;;;;;5065152;28;46209;-75
2022/09/23 16:58:52;;;;;;;;;;;;;;;;;;5065385;28;45912;-75
2022/09/23 17:04:03;;;;;;;;;;;;;;;;;;5067259;28;44642;-77